sensor_id;sensor_type;location;lat;lon;timestamp;P1;durP1;ratioP1;P2;durP2;ratioP2
75626;SDS011;67372;49.404;11.034;2024-03-08T00:00:18;19.38;;;7.85;;
75626;SDS011;67372;49.404;11.034;2024-03-08T00:02:46;24.20;;;9.13;;
75626;SDS011;67372;49.404;11.034;2024-03-08T00:05:13;23.85;;;8.68;;
75626;SDS011;67372;49.404;11.034;2024-03-08T00:07:41;26.20;;;9.52;;
75626;SDS011;67372;49.404;11.034;2024-03-08T00:10:08;21.30;;;8.48;;
75626;SDS011;67372;49.404;11.034;2024-03-08T00:12:40;24.33;;;9.25;;
75626;SDS011;67372;49.404;11.034;2024-03-08T00:15:08;24.50;;;9.07;;
75626;SDS011;67372;49.404;11.034;2024-03-08T00:17:35;21.05;;;8.57;;
75626;SDS011;67372;49.404;11.034;2024-03-08T00:20:02;22.73;;;8.75;;
75626;SDS011;67372;49.404;11.034;2024-03-08T00:22:28;22.05;;;8.23;;
75626;SDS011;67372;49.404;11.034;2024-03-08T00:24:55;23.95;;;8.98;;
75626;SDS011;67372;49.404;11.034;2024-03-08T00:27:21;18.88;;;7.78;;
75626;SDS011;67372;49.404;11.034;2024-03-08T00:29:48;21.20;;;8.15;;
75626;SDS011;67372;49.404;11.034;2024-03-08T00:32:14;25.63;;;8.75;;
75626;SDS011;67372;49.404;11.034;2024-03-08T00:34:41;23.05;;;8.98;;
75626;SDS011;67372;49.404;11.034;2024-03-08T00:37:07;26.60;;;8.25;;
75626;SDS011;67372;49.404;11.034;2024-03-08T00:39:33;25.92;;;9.38;;
75626;SDS011;67372;49.404;11.034;2024-03-08T00:42:00;21.83;;;8.15;;
75626;SDS011;67372;49.404;11.034;2024-03-08T00:44:26;24.52;;;9.40;;
75626;SDS011;67372;49.404;11.034;2024-03-08T00:46:53;19.73;;;8.68;;
75626;SDS011;67372;49.404;11.034;2024-03-08T00:49:20;18.58;;;8.05;;
75626;SDS011;67372;49.404;11.034;2024-03-08T00:51:47;19.88;;;9.00;;
75626;SDS011;67372;49.404;11.034;2024-03-08T00:54:13;20.67;;;8.85;;
75626;SDS011;67372;49.404;11.034;2024-03-08T00:56:39;26.80;;;9.43;;
75626;SDS011;67372;49.404;11.034;2024-03-08T00:59:06;22.33;;;8.95;;
75626;SDS011;67372;49.404;11.034;2024-03-08T01:01:33;20.83;;;9.52;;
75626;SDS011;67372;49.404;11.034;2024-03-08T01:03:59;20.65;;;8.43;;
75626;SDS011;67372;49.404;11.034;2024-03-08T01:06:26;23.80;;;8.38;;
75626;SDS011;67372;49.404;11.034;2024-03-08T01:08:52;28.17;;;9.95;;
75626;SDS011;67372;49.404;11.034;2024-03-08T01:11:18;22.65;;;9.50;;
75626;SDS011;67372;49.404;11.034;2024-03-08T01:13:45;20.92;;;8.77;;
75626;SDS011;67372;49.404;11.034;2024-03-08T01:16:11;24.75;;;9.43;;
75626;SDS011;67372;49.404;11.034;2024-03-08T01:18:42;23.30;;;9.02;;
75626;SDS011;67372;49.404;11.034;2024-03-08T01:21:09;22.35;;;8.80;;
75626;SDS011;67372;49.404;11.034;2024-03-08T01:23:35;26.83;;;9.48;;
75626;SDS011;67372;49.404;11.034;2024-03-08T01:26:02;23.73;;;8.23;;
75626;SDS011;67372;49.404;11.034;2024-03-08T01:28:28;24.23;;;9.32;;
75626;SDS011;67372;49.404;11.034;2024-03-08T01:30:54;26.95;;;8.43;;
75626;SDS011;67372;49.404;11.034;2024-03-08T01:33:24;23.45;;;8.48;;
75626;SDS011;67372;49.404;11.034;2024-03-08T01:35:52;21.65;;;8.60;;
75626;SDS011;67372;49.404;11.034;2024-03-08T01:38:19;25.80;;;9.73;;
75626;SDS011;67372;49.404;11.034;2024-03-08T01:40:47;20.05;;;8.10;;
75626;SDS011;67372;49.404;11.034;2024-03-08T01:45:53;23.52;;;10.13;;
75626;SDS011;67372;49.404;11.034;2024-03-08T01:48:19;19.40;;;8.02;;
75626;SDS011;67372;49.404;11.034;2024-03-08T01:50:47;23.52;;;8.18;;
75626;SDS011;67372;49.404;11.034;2024-03-08T01:53:13;23.75;;;9.68;;
75626;SDS011;67372;49.404;11.034;2024-03-08T01:55:40;27.10;;;9.00;;
75626;SDS011;67372;49.404;11.034;2024-03-08T01:58:06;23.52;;;8.80;;
75626;SDS011;67372;49.404;11.034;2024-03-08T02:00:35;19.15;;;8.07;;
75626;SDS011;67372;49.404;11.034;2024-03-08T02:03:04;21.38;;;8.40;;
75626;SDS011;67372;49.404;11.034;2024-03-08T02:05:30;23.98;;;9.68;;
75626;SDS011;67372;49.404;11.034;2024-03-08T02:07:58;20.20;;;9.00;;
75626;SDS011;67372;49.404;11.034;2024-03-08T02:10:24;21.25;;;8.63;;
75626;SDS011;67372;49.404;11.034;2024-03-08T02:12:50;22.52;;;9.20;;
75626;SDS011;67372;49.404;11.034;2024-03-08T02:15:17;25.35;;;9.00;;
75626;SDS011;67372;49.404;11.034;2024-03-08T02:17:43;20.83;;;8.38;;
75626;SDS011;67372;49.404;11.034;2024-03-08T02:20:10;21.52;;;8.55;;
75626;SDS011;67372;49.404;11.034;2024-03-08T02:22:36;21.60;;;9.35;;
75626;SDS011;67372;49.404;11.034;2024-03-08T02:25:03;24.05;;;8.45;;
75626;SDS011;67372;49.404;11.034;2024-03-08T02:27:30;22.30;;;7.93;;
75626;SDS011;67372;49.404;11.034;2024-03-08T02:29:57;24.20;;;8.68;;
75626;SDS011;67372;49.404;11.034;2024-03-08T02:32:23;19.77;;;9.30;;
75626;SDS011;67372;49.404;11.034;2024-03-08T02:34:50;24.23;;;9.23;;
75626;SDS011;67372;49.404;11.034;2024-03-08T02:37:17;20.45;;;8.70;;
75626;SDS011;67372;49.404;11.034;2024-03-08T02:39:43;24.02;;;8.80;;
75626;SDS011;67372;49.404;11.034;2024-03-08T02:42:10;20.05;;;7.85;;
75626;SDS011;67372;49.404;11.034;2024-03-08T02:44:37;21.90;;;7.80;;
75626;SDS011;67372;49.404;11.034;2024-03-08T02:47:03;19.73;;;8.13;;
75626;SDS011;67372;49.404;11.034;2024-03-08T02:49:29;20.73;;;9.35;;
75626;SDS011;67372;49.404;11.034;2024-03-08T02:51:56;21.38;;;9.02;;
75626;SDS011;67372;49.404;11.034;2024-03-08T02:54:22;25.17;;;9.05;;
75626;SDS011;67372;49.404;11.034;2024-03-08T02:56:48;27.92;;;10.13;;
75626;SDS011;67372;49.404;11.034;2024-03-08T02:59:15;21.48;;;9.05;;
75626;SDS011;67372;49.404;11.034;2024-03-08T03:01:41;26.67;;;10.10;;
75626;SDS011;67372;49.404;11.034;2024-03-08T03:04:08;24.23;;;8.75;;
75626;SDS011;67372;49.404;11.034;2024-03-08T03:06:34;21.85;;;8.85;;
75626;SDS011;67372;49.404;11.034;2024-03-08T03:09:01;22.58;;;9.50;;
75626;SDS011;67372;49.404;11.034;2024-03-08T03:11:28;20.98;;;8.98;;
75626;SDS011;67372;49.404;11.034;2024-03-08T03:13:54;24.45;;;8.90;;
75626;SDS011;67372;49.404;11.034;2024-03-08T03:16:21;23.90;;;9.30;;
75626;SDS011;67372;49.404;11.034;2024-03-08T03:18:47;22.38;;;8.88;;
75626;SDS011;67372;49.404;11.034;2024-03-08T03:21:14;26.98;;;9.15;;
75626;SDS011;67372;49.404;11.034;2024-03-08T03:23:41;21.40;;;8.85;;
75626;SDS011;67372;49.404;11.034;2024-03-08T03:26:08;21.77;;;9.30;;
75626;SDS011;67372;49.404;11.034;2024-03-08T03:28:35;20.17;;;8.88;;
75626;SDS011;67372;49.404;11.034;2024-03-08T03:31:01;26.15;;;9.43;;
75626;SDS011;67372;49.404;11.034;2024-03-08T03:33:27;22.92;;;9.25;;
75626;SDS011;67372;49.404;11.034;2024-03-08T03:35:54;21.02;;;7.85;;
75626;SDS011;67372;49.404;11.034;2024-03-08T03:38:20;21.13;;;8.63;;
75626;SDS011;67372;49.404;11.034;2024-03-08T03:40:47;22.90;;;9.43;;
75626;SDS011;67372;49.404;11.034;2024-03-08T03:43:13;25.40;;;8.93;;
75626;SDS011;67372;49.404;11.034;2024-03-08T03:45:39;21.33;;;8.35;;
75626;SDS011;67372;49.404;11.034;2024-03-08T03:48:06;20.98;;;9.00;;
75626;SDS011;67372;49.404;11.034;2024-03-08T03:50:34;25.90;;;9.93;;
75626;SDS011;67372;49.404;11.034;2024-03-08T03:53:01;20.23;;;8.05;;
75626;SDS011;67372;49.404;11.034;2024-03-08T03:55:28;22.27;;;8.15;;
75626;SDS011;67372;49.404;11.034;2024-03-08T03:57:54;24.88;;;10.48;;
75626;SDS011;67372;49.404;11.034;2024-03-08T04:00:21;26.33;;;9.43;;
75626;SDS011;67372;49.404;11.034;2024-03-08T04:02:47;25.45;;;9.38;;
75626;SDS011;67372;49.404;11.034;2024-03-08T04:05:13;28.85;;;9.32;;
75626;SDS011;67372;49.404;11.034;2024-03-08T04:07:40;25.20;;;9.40;;
75626;SDS011;67372;49.404;11.034;2024-03-08T04:10:07;25.67;;;9.40;;
75626;SDS011;67372;49.404;11.034;2024-03-08T04:12:35;20.60;;;8.40;;
75626;SDS011;67372;49.404;11.034;2024-03-08T04:15:01;23.60;;;9.38;;
75626;SDS011;67372;49.404;11.034;2024-03-08T04:17:28;19.23;;;8.48;;
75626;SDS011;67372;49.404;11.034;2024-03-08T04:19:55;22.58;;;9.60;;
75626;SDS011;67372;49.404;11.034;2024-03-08T04:22:21;25.05;;;9.55;;
75626;SDS011;67372;49.404;11.034;2024-03-08T04:24:47;27.95;;;9.02;;
75626;SDS011;67372;49.404;11.034;2024-03-08T04:27:14;22.00;;;9.38;;
75626;SDS011;67372;49.404;11.034;2024-03-08T04:29:40;22.38;;;9.48;;
75626;SDS011;67372;49.404;11.034;2024-03-08T04:32:07;22.42;;;9.70;;
75626;SDS011;67372;49.404;11.034;2024-03-08T04:34:33;24.50;;;9.27;;
75626;SDS011;67372;49.404;11.034;2024-03-08T04:37:00;21.08;;;9.77;;
75626;SDS011;67372;49.404;11.034;2024-03-08T04:39:27;25.10;;;9.38;;
75626;SDS011;67372;49.404;11.034;2024-03-08T04:41:54;23.42;;;9.48;;
75626;SDS011;67372;49.404;11.034;2024-03-08T04:44:27;26.48;;;8.90;;
75626;SDS011;67372;49.404;11.034;2024-03-08T04:46:54;22.98;;;9.68;;
75626;SDS011;67372;49.404;11.034;2024-03-08T04:49:20;27.75;;;9.10;;
75626;SDS011;67372;49.404;11.034;2024-03-08T04:51:46;27.55;;;10.18;;
75626;SDS011;67372;49.404;11.034;2024-03-08T04:54:13;23.70;;;9.02;;
75626;SDS011;67372;49.404;11.034;2024-03-08T04:56:39;25.38;;;9.80;;
75626;SDS011;67372;49.404;11.034;2024-03-08T04:59:06;24.08;;;9.23;;
75626;SDS011;67372;49.404;11.034;2024-03-08T05:01:32;23.73;;;8.98;;
75626;SDS011;67372;49.404;11.034;2024-03-08T05:03:58;23.83;;;8.63;;
75626;SDS011;67372;49.404;11.034;2024-03-08T05:06:31;21.55;;;9.35;;
75626;SDS011;67372;49.404;11.034;2024-03-08T05:08:57;24.00;;;9.07;;
75626;SDS011;67372;49.404;11.034;2024-03-08T05:11:23;26.27;;;9.70;;
75626;SDS011;67372;49.404;11.034;2024-03-08T05:13:50;25.67;;;9.27;;
75626;SDS011;67372;49.404;11.034;2024-03-08T05:16:16;24.70;;;9.57;;
75626;SDS011;67372;49.404;11.034;2024-03-08T05:18:43;25.00;;;9.43;;
75626;SDS011;67372;49.404;11.034;2024-03-08T05:21:09;21.13;;;8.65;;
75626;SDS011;67372;49.404;11.034;2024-03-08T05:23:36;31.75;;;10.07;;
75626;SDS011;67372;49.404;11.034;2024-03-08T05:26:02;22.77;;;8.98;;
75626;SDS011;67372;49.404;11.034;2024-03-08T05:28:31;29.15;;;10.52;;
75626;SDS011;67372;49.404;11.034;2024-03-08T05:30:57;32.50;;;11.13;;
75626;SDS011;67372;49.404;11.034;2024-03-08T05:33:24;27.13;;;9.85;;
75626;SDS011;67372;49.404;11.034;2024-03-08T05:35:50;27.75;;;9.73;;
75626;SDS011;67372;49.404;11.034;2024-03-08T05:38:17;24.38;;;9.50;;
75626;SDS011;67372;49.404;11.034;2024-03-08T05:40:43;24.70;;;10.15;;
75626;SDS011;67372;49.404;11.034;2024-03-08T05:43:09;26.30;;;9.55;;
75626;SDS011;67372;49.404;11.034;2024-03-08T05:45:36;22.25;;;9.52;;
75626;SDS011;67372;49.404;11.034;2024-03-08T05:48:03;27.60;;;9.75;;
75626;SDS011;67372;49.404;11.034;2024-03-08T05:52:57;21.80;;;7.88;;
75626;SDS011;67372;49.404;11.034;2024-03-08T05:55:23;23.40;;;9.50;;
75626;SDS011;67372;49.404;11.034;2024-03-08T05:57:50;21.33;;;9.02;;
75626;SDS011;67372;49.404;11.034;2024-03-08T06:00:16;25.40;;;10.52;;
75626;SDS011;67372;49.404;11.034;2024-03-08T06:02:43;28.63;;;10.07;;
75626;SDS011;67372;49.404;11.034;2024-03-08T06:05:10;27.70;;;10.15;;
75626;SDS011;67372;49.404;11.034;2024-03-08T06:07:37;24.48;;;10.20;;
75626;SDS011;67372;49.404;11.034;2024-03-08T06:10:03;25.92;;;10.63;;
75626;SDS011;67372;49.404;11.034;2024-03-08T06:12:30;27.52;;;11.18;;
75626;SDS011;67372;49.404;11.034;2024-03-08T06:14:57;25.27;;;10.90;;
75626;SDS011;67372;49.404;11.034;2024-03-08T06:17:23;27.52;;;10.88;;
75626;SDS011;67372;49.404;11.034;2024-03-08T06:19:50;31.92;;;10.63;;
75626;SDS011;67372;49.404;11.034;2024-03-08T06:22:16;27.58;;;11.13;;
75626;SDS011;67372;49.404;11.034;2024-03-08T06:24:42;26.33;;;10.77;;
75626;SDS011;67372;49.404;11.034;2024-03-08T06:27:09;28.02;;;10.75;;
75626;SDS011;67372;49.404;11.034;2024-03-08T06:29:35;29.33;;;10.00;;
75626;SDS011;67372;49.404;11.034;2024-03-08T06:32:01;31.27;;;11.68;;
75626;SDS011;67372;49.404;11.034;2024-03-08T06:34:28;31.35;;;11.15;;
75626;SDS011;67372;49.404;11.034;2024-03-08T06:36:54;26.15;;;10.35;;
75626;SDS011;67372;49.404;11.034;2024-03-08T06:39:21;32.38;;;11.18;;
75626;SDS011;67372;49.404;11.034;2024-03-08T06:41:47;25.60;;;10.95;;
75626;SDS011;67372;49.404;11.034;2024-03-08T06:44:13;29.35;;;11.38;;
75626;SDS011;67372;49.404;11.034;2024-03-08T06:46:40;29.15;;;11.23;;
75626;SDS011;67372;49.404;11.034;2024-03-08T06:49:07;27.67;;;12.05;;
75626;SDS011;67372;49.404;11.034;2024-03-08T06:51:33;26.80;;;10.45;;
75626;SDS011;67372;49.404;11.034;2024-03-08T06:54:00;29.45;;;11.32;;
75626;SDS011;67372;49.404;11.034;2024-03-08T06:56:26;28.45;;;11.55;;
75626;SDS011;67372;49.404;11.034;2024-03-08T06:58:52;30.80;;;12.40;;
75626;SDS011;67372;49.404;11.034;2024-03-08T07:01:19;31.33;;;11.20;;
75626;SDS011;67372;49.404;11.034;2024-03-08T07:03:45;24.38;;;10.70;;
75626;SDS011;67372;49.404;11.034;2024-03-08T07:06:12;31.60;;;12.10;;
75626;SDS011;67372;49.404;11.034;2024-03-08T07:08:38;30.67;;;10.88;;
75626;SDS011;67372;49.404;11.034;2024-03-08T07:11:05;27.92;;;11.18;;
75626;SDS011;67372;49.404;11.034;2024-03-08T07:13:32;26.40;;;10.00;;
75626;SDS011;67372;49.404;11.034;2024-03-08T07:15:58;28.25;;;11.00;;
75626;SDS011;67372;49.404;11.034;2024-03-08T07:18:24;28.10;;;10.57;;
75626;SDS011;67372;49.404;11.034;2024-03-08T07:20:51;28.63;;;11.80;;
75626;SDS011;67372;49.404;11.034;2024-03-08T07:23:17;32.22;;;11.77;;
75626;SDS011;67372;49.404;11.034;2024-03-08T07:25:44;29.63;;;11.90;;
75626;SDS011;67372;49.404;11.034;2024-03-08T07:28:10;33.10;;;11.68;;
75626;SDS011;67372;49.404;11.034;2024-03-08T07:30:39;36.33;;;12.77;;
75626;SDS011;67372;49.404;11.034;2024-03-08T07:33:05;28.08;;;11.70;;
75626;SDS011;67372;49.404;11.034;2024-03-08T07:35:32;30.88;;;12.40;;
75626;SDS011;67372;49.404;11.034;2024-03-08T07:38:03;27.92;;;11.57;;
75626;SDS011;67372;49.404;11.034;2024-03-08T07:40:30;29.73;;;11.77;;
75626;SDS011;67372;49.404;11.034;2024-03-08T07:42:57;26.92;;;10.45;;
75626;SDS011;67372;49.404;11.034;2024-03-08T07:45:24;32.22;;;11.50;;
75626;SDS011;67372;49.404;11.034;2024-03-08T07:47:50;24.08;;;9.75;;
75626;SDS011;67372;49.404;11.034;2024-03-08T07:50:17;28.83;;;10.40;;
75626;SDS011;67372;49.404;11.034;2024-03-08T07:55:52;26.10;;;10.63;;
75626;SDS011;67372;49.404;11.034;2024-03-08T07:58:19;25.10;;;9.75;;
75626;SDS011;67372;49.404;11.034;2024-03-08T08:00:50;25.38;;;10.20;;
75626;SDS011;67372;49.404;11.034;2024-03-08T08:03:16;27.23;;;10.57;;
75626;SDS011;67372;49.404;11.034;2024-03-08T08:05:48;23.75;;;10.20;;
75626;SDS011;67372;49.404;11.034;2024-03-08T08:08:14;24.35;;;9.32;;
75626;SDS011;67372;49.404;11.034;2024-03-08T08:10:41;23.58;;;9.98;;
75626;SDS011;67372;49.404;11.034;2024-03-08T08:13:07;24.77;;;10.32;;
75626;SDS011;67372;49.404;11.034;2024-03-08T08:15:33;21.25;;;9.25;;
75626;SDS011;67372;49.404;11.034;2024-03-08T08:18:00;21.67;;;9.75;;
75626;SDS011;67372;49.404;11.034;2024-03-08T08:20:26;28.17;;;11.50;;
75626;SDS011;67372;49.404;11.034;2024-03-08T08:22:53;20.20;;;9.38;;
75626;SDS011;67372;49.404;11.034;2024-03-08T08:25:19;21.38;;;9.65;;
75626;SDS011;67372;49.404;11.034;2024-03-08T08:27:46;20.52;;;8.95;;
75626;SDS011;67372;49.404;11.034;2024-03-08T08:32:53;21.65;;;9.20;;
75626;SDS011;67372;49.404;11.034;2024-03-08T09:07:37;19.23;;;8.38;;
75626;SDS011;67372;49.404;11.034;2024-03-08T09:10:04;18.33;;;7.45;;
75626;SDS011;67372;49.404;11.034;2024-03-08T09:12:33;17.40;;;8.07;;
75626;SDS011;67372;49.404;11.034;2024-03-08T09:15:00;17.48;;;7.88;;
75626;SDS011;67372;49.404;11.034;2024-03-08T09:17:26;19.00;;;8.43;;
75626;SDS011;67372;49.404;11.034;2024-03-08T09:19:52;22.00;;;8.55;;
75626;SDS011;67372;49.404;11.034;2024-03-08T09:22:19;19.55;;;9.13;;
75626;SDS011;67372;49.404;11.034;2024-03-08T09:24:45;23.15;;;8.02;;
75626;SDS011;67372;49.404;11.034;2024-03-08T09:27:12;17.13;;;7.03;;
75626;SDS011;67372;49.404;11.034;2024-03-08T09:29:38;16.67;;;7.82;;
75626;SDS011;67372;49.404;11.034;2024-03-08T09:32:05;16.77;;;8.00;;
75626;SDS011;67372;49.404;11.034;2024-03-08T09:34:31;20.98;;;9.10;;
75626;SDS011;67372;49.404;11.034;2024-03-08T09:37:03;17.20;;;8.23;;
75626;SDS011;67372;49.404;11.034;2024-03-08T09:39:30;19.15;;;8.50;;
75626;SDS011;67372;49.404;11.034;2024-03-08T09:52:38;16.25;;;7.80;;
75626;SDS011;67372;49.404;11.034;2024-03-08T09:55:05;19.40;;;8.70;;
75626;SDS011;67372;49.404;11.034;2024-03-08T10:00:07;17.27;;;7.32;;
75626;SDS011;67372;49.404;11.034;2024-03-08T10:07:50;16.95;;;7.68;;
75626;SDS011;67372;49.404;11.034;2024-03-08T10:10:17;18.02;;;7.60;;
75626;SDS011;67372;49.404;11.034;2024-03-08T10:12:43;14.82;;;6.40;;
75626;SDS011;67372;49.404;11.034;2024-03-08T10:15:10;16.17;;;7.95;;
75626;SDS011;67372;49.404;11.034;2024-03-08T10:17:36;14.00;;;7.25;;
75626;SDS011;67372;49.404;11.034;2024-03-08T10:20:03;13.60;;;6.95;;
75626;SDS011;67372;49.404;11.034;2024-03-08T10:22:29;14.65;;;6.75;;
75626;SDS011;67372;49.404;11.034;2024-03-08T10:24:56;14.55;;;6.50;;
75626;SDS011;67372;49.404;11.034;2024-03-08T10:27:22;16.00;;;7.25;;
75626;SDS011;67372;49.404;11.034;2024-03-08T10:29:49;13.32;;;7.00;;
75626;SDS011;67372;49.404;11.034;2024-03-08T10:32:15;14.80;;;7.18;;
75626;SDS011;67372;49.404;11.034;2024-03-08T10:34:41;11.77;;;6.00;;
75626;SDS011;67372;49.404;11.034;2024-03-08T10:37:08;15.00;;;7.10;;
75626;SDS011;67372;49.404;11.034;2024-03-08T10:39:41;17.25;;;7.70;;
75626;SDS011;67372;49.404;11.034;2024-03-08T10:42:18;16.17;;;7.47;;
75626;SDS011;67372;49.404;11.034;2024-03-08T10:45:00;14.45;;;7.30;;
75626;SDS011;67372;49.404;11.034;2024-03-08T10:47:54;16.05;;;7.07;;
75626;SDS011;67372;49.404;11.034;2024-03-08T10:50:28;14.95;;;7.43;;
75626;SDS011;67372;49.404;11.034;2024-03-08T10:52:56;15.55;;;6.95;;
75626;SDS011;67372;49.404;11.034;2024-03-08T10:57:50;12.38;;;5.93;;
75626;SDS011;67372;49.404;11.034;2024-03-08T11:00:17;15.02;;;6.90;;
75626;SDS011;67372;49.404;11.034;2024-03-08T11:02:44;13.05;;;5.70;;
75626;SDS011;67372;49.404;11.034;2024-03-08T11:05:10;11.50;;;5.43;;
75626;SDS011;67372;49.404;11.034;2024-03-08T11:07:57;13.98;;;6.40;;
75626;SDS011;67372;49.404;11.034;2024-03-08T11:10:23;15.60;;;6.53;;
75626;SDS011;67372;49.404;11.034;2024-03-08T11:12:50;13.23;;;5.90;;
75626;SDS011;67372;49.404;11.034;2024-03-08T11:15:17;14.05;;;6.15;;
75626;SDS011;67372;49.404;11.034;2024-03-08T11:17:49;15.73;;;6.68;;
75626;SDS011;67372;49.404;11.034;2024-03-08T11:20:19;11.98;;;5.57;;
75626;SDS011;67372;49.404;11.034;2024-03-08T11:22:50;11.18;;;5.45;;
75626;SDS011;67372;49.404;11.034;2024-03-08T11:25:30;13.10;;;5.82;;
75626;SDS011;67372;49.404;11.034;2024-03-08T11:28:18;10.05;;;5.45;;
75626;SDS011;67372;49.404;11.034;2024-03-08T11:33:29;10.40;;;4.93;;
75626;SDS011;67372;49.404;11.034;2024-03-08T11:38:48;8.95;;;4.32;;
75626;SDS011;67372;49.404;11.034;2024-03-08T11:41:18;8.93;;;4.13;;
75626;SDS011;67372;49.404;11.034;2024-03-08T11:43:46;7.32;;;3.80;;
75626;SDS011;67372;49.404;11.034;2024-03-08T11:46:14;9.43;;;3.90;;
75626;SDS011;67372;49.404;11.034;2024-03-08T11:48:44;8.82;;;5.10;;
75626;SDS011;67372;49.404;11.034;2024-03-08T11:51:13;9.35;;;4.38;;
75626;SDS011;67372;49.404;11.034;2024-03-08T11:53:41;8.73;;;4.32;;
75626;SDS011;67372;49.404;11.034;2024-03-08T11:56:13;9.20;;;4.30;;
75626;SDS011;67372;49.404;11.034;2024-03-08T11:58:40;9.93;;;4.63;;
75626;SDS011;67372;49.404;11.034;2024-03-08T12:01:07;7.80;;;3.80;;
75626;SDS011;67372;49.404;11.034;2024-03-08T12:03:35;8.43;;;3.80;;
75626;SDS011;67372;49.404;11.034;2024-03-08T12:06:01;8.85;;;4.07;;
75626;SDS011;67372;49.404;11.034;2024-03-08T12:08:27;8.50;;;4.07;;
75626;SDS011;67372;49.404;11.034;2024-03-08T12:10:54;6.95;;;3.40;;
75626;SDS011;67372;49.404;11.034;2024-03-08T12:13:21;8.82;;;4.15;;
75626;SDS011;67372;49.404;11.034;2024-03-08T12:15:47;9.70;;;5.28;;
75626;SDS011;67372;49.404;11.034;2024-03-08T12:18:14;10.05;;;4.30;;
75626;SDS011;67372;49.404;11.034;2024-03-08T12:20:40;11.65;;;5.43;;
75626;SDS011;67372;49.404;11.034;2024-03-08T12:23:06;11.52;;;6.57;;
75626;SDS011;67372;49.404;11.034;2024-03-08T12:25:39;11.57;;;5.47;;
75626;SDS011;67372;49.404;11.034;2024-03-08T12:28:06;11.15;;;5.10;;
75626;SDS011;67372;49.404;11.034;2024-03-08T12:30:43;12.60;;;5.30;;
75626;SDS011;67372;49.404;11.034;2024-03-08T12:33:18;10.52;;;5.13;;
75626;SDS011;67372;49.404;11.034;2024-03-08T12:35:53;10.88;;;5.30;;
75626;SDS011;67372;49.404;11.034;2024-03-08T12:38:22;9.98;;;4.85;;
75626;SDS011;67372;49.404;11.034;2024-03-08T12:40:49;10.05;;;4.65;;
75626;SDS011;67372;49.404;11.034;2024-03-08T12:43:15;10.48;;;5.18;;
75626;SDS011;67372;49.404;11.034;2024-03-08T12:45:41;10.27;;;5.15;;
75626;SDS011;67372;49.404;11.034;2024-03-08T12:48:14;9.23;;;4.80;;
75626;SDS011;67372;49.404;11.034;2024-03-08T12:50:40;10.38;;;5.35;;
75626;SDS011;67372;49.404;11.034;2024-03-08T12:53:07;10.20;;;5.03;;
75626;SDS011;67372;49.404;11.034;2024-03-08T12:55:34;11.18;;;5.05;;
75626;SDS011;67372;49.404;11.034;2024-03-08T12:58:02;9.23;;;4.68;;
75626;SDS011;67372;49.404;11.034;2024-03-08T13:00:29;9.35;;;4.68;;
75626;SDS011;67372;49.404;11.034;2024-03-08T13:02:55;10.20;;;5.45;;
75626;SDS011;67372;49.404;11.034;2024-03-08T13:05:21;8.32;;;4.93;;
75626;SDS011;67372;49.404;11.034;2024-03-08T13:07:48;12.70;;;5.28;;
75626;SDS011;67372;49.404;11.034;2024-03-08T13:10:14;12.10;;;5.72;;
75626;SDS011;67372;49.404;11.034;2024-03-08T13:12:42;11.27;;;5.53;;
75626;SDS011;67372;49.404;11.034;2024-03-08T13:15:09;13.23;;;5.60;;
75626;SDS011;67372;49.404;11.034;2024-03-08T13:17:36;9.82;;;4.55;;
75626;SDS011;67372;49.404;11.034;2024-03-08T13:20:02;10.50;;;5.20;;
75626;SDS011;67372;49.404;11.034;2024-03-08T13:22:29;9.85;;;5.30;;
75626;SDS011;67372;49.404;11.034;2024-03-08T13:24:55;10.45;;;5.10;;
75626;SDS011;67372;49.404;11.034;2024-03-08T13:27:22;12.80;;;5.47;;
75626;SDS011;67372;49.404;11.034;2024-03-08T13:29:48;9.85;;;4.88;;
75626;SDS011;67372;49.404;11.034;2024-03-08T13:32:15;12.40;;;6.22;;
75626;SDS011;67372;49.404;11.034;2024-03-08T13:34:42;9.60;;;5.00;;
75626;SDS011;67372;49.404;11.034;2024-03-08T13:37:09;8.63;;;4.40;;
75626;SDS011;67372;49.404;11.034;2024-03-08T13:39:36;10.68;;;4.70;;
75626;SDS011;67372;49.404;11.034;2024-03-08T13:42:02;9.40;;;4.60;;
75626;SDS011;67372;49.404;11.034;2024-03-08T13:44:29;8.70;;;4.65;;
75626;SDS011;67372;49.404;11.034;2024-03-08T13:46:55;8.60;;;4.80;;
75626;SDS011;67372;49.404;11.034;2024-03-08T13:49:21;8.73;;;4.32;;
75626;SDS011;67372;49.404;11.034;2024-03-08T13:51:48;8.23;;;4.32;;
75626;SDS011;67372;49.404;11.034;2024-03-08T13:54:14;12.18;;;5.68;;
75626;SDS011;67372;49.404;11.034;2024-03-08T13:56:40;9.73;;;4.88;;
75626;SDS011;67372;49.404;11.034;2024-03-08T13:59:07;12.70;;;5.32;;
75626;SDS011;67372;49.404;11.034;2024-03-08T14:01:33;10.70;;;5.40;;
75626;SDS011;67372;49.404;11.034;2024-03-08T14:04:00;11.23;;;5.43;;
75626;SDS011;67372;49.404;11.034;2024-03-08T14:06:26;9.70;;;5.03;;
75626;SDS011;67372;49.404;11.034;2024-03-08T14:08:52;10.30;;;5.13;;
75626;SDS011;67372;49.404;11.034;2024-03-08T14:11:19;8.98;;;4.93;;
75626;SDS011;67372;49.404;11.034;2024-03-08T14:13:46;11.40;;;5.28;;
75626;SDS011;67372;49.404;11.034;2024-03-08T14:16:12;10.68;;;5.72;;
75626;SDS011;67372;49.404;11.034;2024-03-08T14:18:39;11.95;;;5.30;;
75626;SDS011;67372;49.404;11.034;2024-03-08T14:21:06;9.25;;;4.93;;
75626;SDS011;67372;49.404;11.034;2024-03-08T14:23:32;10.73;;;5.72;;
75626;SDS011;67372;49.404;11.034;2024-03-08T14:25:59;11.02;;;5.50;;
75626;SDS011;67372;49.404;11.034;2024-03-08T14:28:25;10.77;;;5.20;;
75626;SDS011;67372;49.404;11.034;2024-03-08T14:30:52;9.38;;;5.03;;
75626;SDS011;67372;49.404;11.034;2024-03-08T14:33:19;14.00;;;5.72;;
75626;SDS011;67372;49.404;11.034;2024-03-08T14:35:45;10.68;;;5.70;;
75626;SDS011;67372;49.404;11.034;2024-03-08T14:38:12;12.05;;;5.90;;
75626;SDS011;67372;49.404;11.034;2024-03-08T14:40:38;11.00;;;5.57;;
75626;SDS011;67372;49.404;11.034;2024-03-08T14:43:05;11.50;;;5.40;;
75626;SDS011;67372;49.404;11.034;2024-03-08T14:45:32;9.90;;;5.15;;
75626;SDS011;67372;49.404;11.034;2024-03-08T14:47:58;10.35;;;5.40;;
75626;SDS011;67372;49.404;11.034;2024-03-08T14:50:25;10.85;;;6.15;;
75626;SDS011;67372;49.404;11.034;2024-03-08T14:52:51;10.38;;;5.72;;
75626;SDS011;67372;49.404;11.034;2024-03-08T14:55:18;11.05;;;5.43;;
75626;SDS011;67372;49.404;11.034;2024-03-08T15:00:12;8.57;;;4.88;;
75626;SDS011;67372;49.404;11.034;2024-03-08T15:02:39;10.88;;;5.25;;
75626;SDS011;67372;49.404;11.034;2024-03-08T15:05:05;13.02;;;6.13;;
75626;SDS011;67372;49.404;11.034;2024-03-08T15:07:32;10.30;;;4.93;;
75626;SDS011;67372;49.404;11.034;2024-03-08T15:09:59;10.77;;;5.30;;
75626;SDS011;67372;49.404;11.034;2024-03-08T15:12:25;10.05;;;5.43;;
75626;SDS011;67372;49.404;11.034;2024-03-08T15:14:54;9.93;;;5.55;;
75626;SDS011;67372;49.404;11.034;2024-03-08T15:17:21;9.27;;;4.70;;
75626;SDS011;67372;49.404;11.034;2024-03-08T15:19:48;9.25;;;5.05;;
75626;SDS011;67372;49.404;11.034;2024-03-08T15:22:15;9.90;;;5.18;;
75626;SDS011;67372;49.404;11.034;2024-03-08T15:24:41;10.80;;;5.95;;
75626;SDS011;67372;49.404;11.034;2024-03-08T15:27:07;11.73;;;5.55;;
75626;SDS011;67372;49.404;11.034;2024-03-08T15:29:34;10.23;;;5.22;;
75626;SDS011;67372;49.404;11.034;2024-03-08T15:32:00;10.48;;;5.22;;